Ana Sayfa
METAR-TAF:

METAR-TAF

Havaalanları :

Rutherford County Airport (Marchman Field)

Rutherfordton, Kuzey Carolina, Amerika Birleşik Devletleri

Enlem: 35-25-42N, Boylam: 081-56-06W, yükseklik: 329 m

Güncel hava durumu gözlemi

Rapor saat 08:15 UTC de 16 dakika önce yapıldı.
Rüzgar doğudan 3 kt
Sıcaklık 21°C
Nem 100%
Basınç 1016 hPa
Görüş mesafesi: 16.1 km
Açık gökyüzü

METAR: KFQD 220815Z AUTO 09003KT 10SM CLR 21/21 A3000 RMK AO2

Saat: 04:31 (08:31 UTC)


TAF: eksik

4.000'den fazla havaalanı için hava durumu gözlemleri ve tahminleri (METAR ve TAF raporları).

Kullanılabilir istasyonlar harita üzerinde sarı ve kırmızı noktalarla gösterilir.

İstasyonun adını görmek için fareyi noktanın üzerinde gezdirin.

Sonrasında hava gözlem ve tahminlerini görmek için tıklayın.

Haritayı değiştirmek için: yaklaştırmak için siyah artı işaretli yeşil düğmeye ve uzaklaştırmak için de eksi işaretli düğmeye hızla tıklayın; bitişik haritalar için yeşil okları kullanın.


METAR-TAF: